createdAt,value
2022-08-25T00:00:45.608Z,82.51
2022-08-25T00:03:18.527Z,83.02
2022-08-25T00:05:51.412Z,82.98
2022-08-25T00:08:23.030Z,82.83
2022-08-25T00:10:59.911Z,83.07
2022-08-25T00:13:35.248Z,83.00
2022-08-25T00:16:06.939Z,82.87
2022-08-25T00:18:40.276Z,83.13
2022-08-25T00:21:13.631Z,82.83
2022-08-25T00:23:46.597Z,82.96
2022-08-25T00:26:19.492Z,83.41
2022-08-25T00:28:51.059Z,83.71
2022-08-25T00:31:37.688Z,83.88
2022-08-25T00:34:18.300Z,83.78
2022-08-25T00:36:51.709Z,83.52
2022-08-25T00:39:24.127Z,83.79
2022-08-25T00:41:57.624Z,83.80
2022-08-25T00:44:33.218Z,83.82
2022-08-25T00:47:06.685Z,83.80
2022-08-25T00:50:06.988Z,83.56
2022-08-25T00:52:48.228Z,83.75
2022-08-25T00:55:30.952Z,83.48
2022-08-25T00:58:08.152Z,83.52
2022-08-25T01:00:44.874Z,83.82
2022-08-25T01:03:19.110Z,83.55
2022-08-25T01:05:51.977Z,83.67
2022-08-25T01:08:28.879Z,83.91
2022-08-25T01:11:04.868Z,84.13
2022-08-25T01:13:49.368Z,83.92
2022-08-25T01:16:21.072Z,84.49
2022-08-25T01:18:57.726Z,84.27
2022-08-25T01:21:31.369Z,84.24
2022-08-25T01:24:03.883Z,84.42
2022-08-25T01:26:35.644Z,84.17
2022-08-25T01:29:21.840Z,84.09
2022-08-25T01:31:59.097Z,83.83
2022-08-25T01:34:34.633Z,84.37
2022-08-25T01:37:06.305Z,84.29
2022-08-25T01:39:38.176Z,84.50
2022-08-25T01:42:37.589Z,84.74
2022-08-25T01:45:10.437Z,84.42
2022-08-25T01:47:42.054Z,84.67
2022-08-25T01:50:13.685Z,84.92
2022-08-25T01:52:51.008Z,84.92
2022-08-25T01:55:22.913Z,85.07
2022-08-25T01:57:58.432Z,84.89
2022-08-25T02:00:33.052Z,84.75
2022-08-25T02:03:04.698Z,85.08
2022-08-25T02:05:43.268Z,85.52
2022-08-25T02:08:20.153Z,85.36
2022-08-25T02:10:53.294Z,85.34
2022-08-25T02:13:26.946Z,85.33
2022-08-25T02:16:03.531Z,85.45
2022-08-25T02:18:35.297Z,85.55
2022-08-25T02:21:06.901Z,85.26
2022-08-25T02:23:39.490Z,85.14
2022-08-25T02:26:11.244Z,85.65
2022-08-25T02:28:44.699Z,85.31
2022-08-25T02:31:18.471Z,85.34
2022-08-25T02:33:50.964Z,85.00
2022-08-25T02:36:23.373Z,85.48
2022-08-25T02:38:55.076Z,85.36
2022-08-25T02:41:30.902Z,85.40
2022-08-25T02:44:04.704Z,85.17
2022-08-25T02:46:40.132Z,85.52
2022-08-25T02:49:11.707Z,85.30
2022-08-25T02:51:43.365Z,85.79
2022-08-25T02:54:16.134Z,85.58
2022-08-25T02:56:48.519Z,85.46
2022-08-25T02:59:21.249Z,85.54
2022-08-25T03:01:53.109Z,85.11
2022-08-25T03:04:24.826Z,85.48
2022-08-25T03:07:01.708Z,85.44
2022-08-25T03:09:34.260Z,85.59
2022-08-25T03:12:11.075Z,85.71
2022-08-25T03:14:43.282Z,85.51
2022-08-25T03:17:14.954Z,85.65
2022-08-25T03:19:46.889Z,85.57
2022-08-25T03:22:18.491Z,85.45
2022-08-25T03:24:50.108Z,85.29
2022-08-25T03:27:21.767Z,85.19
2022-08-25T03:29:53.458Z,85.13
2022-08-25T03:32:25.052Z,85.31
2022-08-25T03:34:56.594Z,85.29
2022-08-25T03:37:28.278Z,85.50
2022-08-25T03:40:00.054Z,85.31
2022-08-25T03:42:34.940Z,85.08
2022-08-25T03:45:08.068Z,85.06
2022-08-25T03:47:40.373Z,85.04
2022-08-25T03:50:12.456Z,85.08
2022-08-25T03:52:44.752Z,85.29
2022-08-25T03:55:16.352Z,84.84
2022-08-25T03:57:47.976Z,85.16
2022-08-25T04:00:23.728Z,85.21
2022-08-25T04:02:55.364Z,85.21
2022-08-25T04:05:27.073Z,85.28
2022-08-25T04:08:02.034Z,85.30
2022-08-25T04:10:36.709Z,85.14
2022-08-25T04:13:08.380Z,85.26
2022-08-25T04:15:43.658Z,85.12
2022-08-25T04:18:16.048Z,85.01
2022-08-25T04:20:47.624Z,85.00
2022-08-25T04:23:19.236Z,85.02
2022-08-25T04:25:50.810Z,85.03
2022-08-25T04:28:22.458Z,85.14
2022-08-25T04:30:54.029Z,85.48
2022-08-25T04:33:25.674Z,85.33
2022-08-25T04:35:57.234Z,85.24
2022-08-25T04:38:29.100Z,85.08
2022-08-25T04:41:05.228Z,85.29
2022-08-25T04:43:38.321Z,85.01
2022-08-25T04:46:20.479Z,85.25
2022-08-25T04:48:54.641Z,85.12
2022-08-25T04:51:30.615Z,85.64
2022-08-25T04:54:05.701Z,85.78
2022-08-25T04:56:40.508Z,85.62
2022-08-25T04:59:14.171Z,83.67
2022-08-25T05:01:46.983Z,83.84
2022-08-25T05:04:27.817Z,83.27
2022-08-25T05:06:59.621Z,82.13
2022-08-25T05:09:32.258Z,81.43
2022-08-25T05:12:04.806Z,80.53
2022-08-25T05:14:38.653Z,80.17
2022-08-25T05:17:10.485Z,79.83
2022-08-25T05:19:42.796Z,78.88
2022-08-25T05:22:14.355Z,78.78
2022-08-25T05:24:46.130Z,78.68
2022-08-25T05:27:17.682Z,78.05
2022-08-25T05:29:49.389Z,77.88
2022-08-25T05:32:20.937Z,77.17
2022-08-25T05:34:53.685Z,76.81
2022-08-25T05:37:25.303Z,76.64
2022-08-25T05:39:57.161Z,76.26
2022-08-25T05:42:28.963Z,75.70
2022-08-25T05:45:00.610Z,75.63
2022-08-25T05:47:32.220Z,75.33
2022-08-25T05:50:04.152Z,75.33
2022-08-25T05:52:35.984Z,75.42
2022-08-25T05:55:08.794Z,75.63
2022-08-25T05:57:40.398Z,74.51
2022-08-25T06:00:12.992Z,73.39
2022-08-25T06:02:44.724Z,72.17
2022-08-25T06:05:22.265Z,70.30
2022-08-25T06:07:53.940Z,69.59
2022-08-25T06:10:26.337Z,67.89
2022-08-25T06:12:58.119Z,65.99
2022-08-25T06:15:30.737Z,65.29
2022-08-25T06:18:03.453Z,64.39
2022-08-25T06:20:35.909Z,62.43
2022-08-25T06:23:07.441Z,62.24
2022-08-25T06:25:40.189Z,61.26
2022-08-25T06:28:11.765Z,60.61
2022-08-25T06:30:43.470Z,59.93
2022-08-25T06:33:15.573Z,59.17
2022-08-25T06:35:54.016Z,58.00
2022-08-25T06:38:26.032Z,57.08
2022-08-25T06:40:58.065Z,56.23
2022-08-25T06:43:29.622Z,54.99
2022-08-25T06:46:14.937Z,53.81
2022-08-25T06:48:47.439Z,53.25
2022-08-25T06:51:20.596Z,52.97
2022-08-25T06:53:52.636Z,51.80
2022-08-25T06:56:24.249Z,51.45
2022-08-25T06:58:55.822Z,50.44
2022-08-25T07:01:29.197Z,50.08
2022-08-25T07:04:10.440Z,50.11
2022-08-25T07:06:44.717Z,49.29
2022-08-25T07:09:17.074Z,47.58
2022-08-25T07:11:48.773Z,48.05
2022-08-25T07:14:20.401Z,47.08
2022-08-25T07:16:52.069Z,46.29
2022-08-25T07:19:23.753Z,46.35
2022-08-25T07:21:55.400Z,45.31
2022-08-25T07:24:27.062Z,44.63
2022-08-25T07:27:01.539Z,44.04
2022-08-25T07:29:36.676Z,44.17
2022-08-25T07:32:13.996Z,43.49
2022-08-25T07:35:04.218Z,43.36
2022-08-25T07:37:48.781Z,44.87
2022-08-25T07:40:24.357Z,45.92
2022-08-25T07:42:58.665Z,46.57
2022-08-25T07:45:35.503Z,47.20
2022-08-25T07:48:10.614Z,48.67
2022-08-25T07:50:45.298Z,48.84
2022-08-25T07:53:17.544Z,49.09
2022-08-25T07:55:49.140Z,49.58
2022-08-25T07:58:21.493Z,50.87
2022-08-25T08:00:53.868Z,50.28
2022-08-25T08:03:44.541Z,49.33
2022-08-25T08:06:19.139Z,48.99
2022-08-25T08:08:54.818Z,49.26
2022-08-25T08:11:34.561Z,48.72
2022-08-25T08:14:07.065Z,48.42
2022-08-25T08:16:39.701Z,47.08
2022-08-25T08:19:11.649Z,46.65
2022-08-25T08:21:43.346Z,45.74
2022-08-25T08:24:40.292Z,43.73
2022-08-25T08:27:07.686Z,44.07
2022-08-25T08:29:41.161Z,42.73
2022-08-25T08:32:13.502Z,41.36
2022-08-25T08:34:46.222Z,40.50
2022-08-25T08:37:18.194Z,40.49
2022-08-25T08:39:52.707Z,39.13
2022-08-25T08:42:37.176Z,39.32
2022-08-25T08:45:14.834Z,39.00
2022-08-25T08:48:24.335Z,39.41
2022-08-25T08:51:17.513Z,37.13
2022-08-25T08:54:18.728Z,37.28
2022-08-25T08:57:02.551Z,38.19
2022-08-25T08:59:44.265Z,36.54
2022-08-25T09:02:39.284Z,36.67
2022-08-25T09:05:21.074Z,35.81
2022-08-25T09:08:10.273Z,36.45
2022-08-25T09:10:58.601Z,35.46
2022-08-25T09:13:59.438Z,36.38
2022-08-25T09:16:55.447Z,36.57
2022-08-25T09:20:05.451Z,36.31
2022-08-25T09:23:02.816Z,36.08
2022-08-25T09:25:53.073Z,36.77
2022-08-25T09:28:35.926Z,37.91
2022-08-25T09:31:16.269Z,37.39
2022-08-25T09:33:47.935Z,36.16
2022-08-25T09:36:19.929Z,36.62
2022-08-25T09:38:51.491Z,36.24
2022-08-25T09:41:43.267Z,37.26
2022-08-25T09:44:27.297Z,37.61
2022-08-25T09:47:04.751Z,37.57
2022-08-25T09:49:46.123Z,39.80
2022-08-25T09:52:28.608Z,39.42
2022-08-25T09:55:22.746Z,38.39
2022-08-25T09:57:57.551Z,39.15
2022-08-25T10:00:34.046Z,40.26
2022-08-25T10:03:08.229Z,40.56
2022-08-25T10:05:56.592Z,40.91
2022-08-25T10:08:34.109Z,40.99
2022-08-25T10:11:14.707Z,40.95
2022-08-25T10:13:51.475Z,40.53
2022-08-25T10:16:36.472Z,41.09
2022-08-25T10:19:14.712Z,41.74
2022-08-25T10:22:08.668Z,42.95
2022-08-25T10:24:43.945Z,43.40
2022-08-25T10:27:15.888Z,44.26
2022-08-25T10:30:03.498Z,45.13
2022-08-25T10:33:01.449Z,45.52
2022-08-25T10:35:50.705Z,45.83
2022-08-25T10:38:46.432Z,45.92
2022-08-25T10:41:34.911Z,45.75
2022-08-25T10:44:42.652Z,45.29
2022-08-25T10:47:23.434Z,45.80
2022-08-25T10:50:02.773Z,45.72
2022-08-25T10:52:59.176Z,45.79
2022-08-25T10:55:48.342Z,47.01
2022-08-25T10:58:31.164Z,47.47
2022-08-25T11:01:28.404Z,47.38
2022-08-25T11:04:28.530Z,47.11
2022-08-25T11:07:28.483Z,47.22
2022-08-25T11:10:09.913Z,47.45
2022-08-25T11:12:55.874Z,47.42
2022-08-25T11:15:33.233Z,48.32
2022-08-25T11:18:14.467Z,48.21
2022-08-25T11:20:56.485Z,48.14
2022-08-25T11:23:35.341Z,47.53
2022-08-25T11:26:17.261Z,46.41
2022-08-25T11:29:05.508Z,46.43
2022-08-25T11:31:53.619Z,45.48
2022-08-25T11:34:28.765Z,45.29
2022-08-25T11:37:19.991Z,44.95
2022-08-25T11:40:09.824Z,43.78
2022-08-25T11:42:49.093Z,44.18
2022-08-25T11:45:54.826Z,44.04
2022-08-25T11:48:46.949Z,44.97
2022-08-25T11:51:33.852Z,44.10
2022-08-25T11:54:22.661Z,44.53
2022-08-25T11:57:17.999Z,45.16
2022-08-25T11:59:49.980Z,44.96
2022-08-25T12:02:45.688Z,45.07
2022-08-25T12:05:17.293Z,44.66
2022-08-25T12:08:21.969Z,44.77
2022-08-25T12:11:01.269Z,45.14
2022-08-25T12:13:42.497Z,44.07
2022-08-25T12:16:44.760Z,44.35
2022-08-25T12:19:22.490Z,43.68
2022-08-25T12:22:26.981Z,44.01
2022-08-25T12:25:09.853Z,44.28
2022-08-25T12:28:11.512Z,44.86
2022-08-25T12:30:50.599Z,45.54
2022-08-25T12:33:40.633Z,45.34
2022-08-25T12:36:27.778Z,45.64
2022-08-25T12:39:34.625Z,45.64
2022-08-25T12:42:30.052Z,45.24
2022-08-25T12:45:18.858Z,44.95
2022-08-25T12:47:54.634Z,45.78
2022-08-25T12:50:28.174Z,45.91
2022-08-25T12:53:08.945Z,46.01
2022-08-25T12:55:46.937Z,45.94
2022-08-25T12:58:18.762Z,46.09
2022-08-25T13:01:32.977Z,45.73
2022-08-25T13:04:27.649Z,45.50
2022-08-25T13:07:14.274Z,44.13
2022-08-25T13:10:16.838Z,44.30
2022-08-25T13:13:15.727Z,44.41
2022-08-25T13:15:59.491Z,43.93
2022-08-25T13:18:33.942Z,43.88
2022-08-25T13:21:24.631Z,44.12
2022-08-25T13:24:04.578Z,44.17
2022-08-25T13:26:48.041Z,43.85
2022-08-25T13:29:23.670Z,43.57
2022-08-25T13:31:59.801Z,43.35
2022-08-25T13:34:35.761Z,43.86
2022-08-25T13:37:29.568Z,44.53
2022-08-25T13:40:10.267Z,45.07
2022-08-25T13:42:50.844Z,45.54
2022-08-25T13:45:30.044Z,45.51
2022-08-25T13:48:04.414Z,45.51
2022-08-25T13:50:41.124Z,45.72
2022-08-25T13:53:21.468Z,45.90
2022-08-25T13:55:58.418Z,46.13
2022-08-25T13:58:45.207Z,46.16
2022-08-25T14:01:48.736Z,45.70
2022-08-25T14:04:21.944Z,46.08
2022-08-25T14:07:12.240Z,47.25
2022-08-25T14:09:51.811Z,46.82
2022-08-25T14:12:47.151Z,46.95
2022-08-25T14:15:20.013Z,46.09
2022-08-25T14:18:21.689Z,45.84
2022-08-25T14:21:02.074Z,45.47
2022-08-25T14:23:36.036Z,46.01
2022-08-25T14:26:07.647Z,46.01
2022-08-25T14:28:39.816Z,45.89
2022-08-25T14:31:24.350Z,45.85
2022-08-25T14:34:02.133Z,46.13
2022-08-25T14:36:35.520Z,46.28
2022-08-25T14:39:08.941Z,46.23
2022-08-25T14:41:44.361Z,46.52
2022-08-25T14:44:17.441Z,46.81
2022-08-25T14:46:54.155Z,46.97
2022-08-25T14:49:32.781Z,47.57
2022-08-25T14:52:22.500Z,47.30
2022-08-25T14:54:54.724Z,46.64
2022-08-25T14:57:26.680Z,46.00
2022-08-25T14:59:58.559Z,46.09
2022-08-25T15:02:34.321Z,46.47
2022-08-25T15:05:12.443Z,46.63
2022-08-25T15:08:02.416Z,46.21
2022-08-25T15:10:34.057Z,45.79
2022-08-25T15:13:06.372Z,45.82
2022-08-25T15:15:40.105Z,46.44
2022-08-25T15:18:25.780Z,45.82
2022-08-25T15:20:57.351Z,45.34
2022-08-25T15:23:29.408Z,45.20
2022-08-25T15:26:01.472Z,45.51
2022-08-25T15:28:33.113Z,45.42
2022-08-25T15:31:07.273Z,45.70
2022-08-25T15:33:40.025Z,45.73
2022-08-25T15:36:15.820Z,45.74
2022-08-25T15:38:53.844Z,45.56
2022-08-25T15:41:27.088Z,45.94
2022-08-25T15:44:02.756Z,45.36
2022-08-25T15:46:36.804Z,45.75
2022-08-25T15:49:10.122Z,45.62
2022-08-25T15:51:42.588Z,45.32
2022-08-25T15:54:16.044Z,44.16
2022-08-25T15:56:47.990Z,44.70
2022-08-25T15:59:21.745Z,44.81
2022-08-25T16:01:54.120Z,44.85
2022-08-25T16:04:28.924Z,45.31
2022-08-25T16:07:00.839Z,44.96
2022-08-25T16:09:33.000Z,45.27
2022-08-25T16:12:08.437Z,44.79
2022-08-25T16:14:40.554Z,44.67
2022-08-25T16:17:14.416Z,45.13
2022-08-25T16:19:47.654Z,45.05
2022-08-25T16:22:19.680Z,45.16
2022-08-25T16:24:51.690Z,45.04
2022-08-25T16:27:24.217Z,45.11
2022-08-25T16:29:55.853Z,45.08
2022-08-25T16:32:27.672Z,45.23
2022-08-25T16:34:59.371Z,45.40
2022-08-25T16:37:32.852Z,46.15
2022-08-25T16:40:05.834Z,46.59
2022-08-25T16:42:37.495Z,47.89
2022-08-25T16:45:09.577Z,48.19
2022-08-25T16:47:42.771Z,48.22
2022-08-25T16:50:15.406Z,48.54
2022-08-25T16:53:07.781Z,49.42
2022-08-25T16:55:39.958Z,50.17
2022-08-25T16:58:13.416Z,50.46
2022-08-25T17:00:45.538Z,51.63
2022-08-25T17:03:17.181Z,52.03
2022-08-25T17:05:58.835Z,53.13
2022-08-25T17:08:31.034Z,53.18
2022-08-25T17:11:15.581Z,53.40
2022-08-25T17:13:49.752Z,53.96
2022-08-25T17:16:27.926Z,54.00
2022-08-25T17:19:02.725Z,54.26
2022-08-25T17:21:39.145Z,53.99
2022-08-25T17:24:17.207Z,54.13
2022-08-25T17:26:51.623Z,52.87
2022-08-25T17:29:23.209Z,53.63
2022-08-25T17:31:54.951Z,53.98
2022-08-25T17:34:27.234Z,53.18
2022-08-25T17:36:59.851Z,53.41
2022-08-25T17:39:32.857Z,54.34
2022-08-25T17:42:06.436Z,55.92
2022-08-25T17:44:38.624Z,56.72
2022-08-25T17:47:10.790Z,56.60
2022-08-25T17:49:42.339Z,56.91
2022-08-25T17:52:14.696Z,56.75
2022-08-25T17:54:47.526Z,57.50
2022-08-25T17:57:19.929Z,58.06
2022-08-25T17:59:52.876Z,59.34
2022-08-25T18:02:24.545Z,59.69
2022-08-25T18:05:03.509Z,60.48
2022-08-25T18:07:36.384Z,61.39
2022-08-25T18:10:10.184Z,61.52
2022-08-25T18:12:43.649Z,62.55
2022-08-25T18:15:17.025Z,62.42
2022-08-25T18:17:48.743Z,62.33
2022-08-25T18:20:21.230Z,62.51
2022-08-25T18:22:56.799Z,62.93
2022-08-25T18:25:30.297Z,62.64
2022-08-25T18:28:02.728Z,62.57
2022-08-25T18:30:35.066Z,63.10
2022-08-25T18:33:07.413Z,63.51
2022-08-25T18:35:39.461Z,63.46
2022-08-25T18:38:32.666Z,63.60
2022-08-25T18:41:06.526Z,64.22
2022-08-25T18:43:38.851Z,64.28
2022-08-25T18:46:11.615Z,64.10
2022-08-25T18:48:43.615Z,63.74
2022-08-25T18:51:15.418Z,63.98
2022-08-25T18:53:50.183Z,63.84
2022-08-25T18:56:25.701Z,63.64
2022-08-25T18:58:58.015Z,63.71
2022-08-25T19:01:31.793Z,64.32
2022-08-25T19:04:04.049Z,64.27
2022-08-25T19:06:37.268Z,65.79
2022-08-25T19:09:08.934Z,66.50
2022-08-25T19:11:40.575Z,66.30
2022-08-25T19:14:14.138Z,66.50
2022-08-25T19:16:45.826Z,66.53
2022-08-25T19:19:17.890Z,66.89
2022-08-25T19:21:50.963Z,66.68
2022-08-25T19:24:22.675Z,66.82
2022-08-25T19:26:55.926Z,67.75
2022-08-25T19:29:30.535Z,67.13
2022-08-25T19:32:02.496Z,67.62
2022-08-25T19:34:42.025Z,67.26
2022-08-25T19:37:16.475Z,67.12
2022-08-25T19:39:53.794Z,67.18
2022-08-25T19:42:35.131Z,66.81
2022-08-25T19:45:12.172Z,66.86
2022-08-25T19:47:43.816Z,66.54
2022-08-25T19:50:17.758Z,66.55
2022-08-25T19:52:50.127Z,66.59
2022-08-25T19:55:22.070Z,66.80
2022-08-25T19:57:54.770Z,67.29
2022-08-25T20:00:35.093Z,67.49
2022-08-25T20:03:09.425Z,67.96
2022-08-25T20:05:41.686Z,67.50
2022-08-25T20:08:14.976Z,67.95
2022-08-25T20:10:46.733Z,68.09
2022-08-25T20:13:18.762Z,68.13
2022-08-25T20:15:51.436Z,68.21
2022-08-25T20:18:29.697Z,68.62
2022-08-25T20:21:02.344Z,68.78
2022-08-25T20:23:52.437Z,68.70
2022-08-25T20:26:24.060Z,69.21
2022-08-25T20:28:58.605Z,69.34
2022-08-25T20:31:31.326Z,69.25
2022-08-25T20:34:03.276Z,68.93
2022-08-25T20:36:37.706Z,69.44
2022-08-25T20:39:10.643Z,69.45
2022-08-25T20:41:42.249Z,69.98
2022-08-25T20:44:20.026Z,70.12
2022-08-25T20:46:57.332Z,70.44
2022-08-25T20:49:31.304Z,70.33
2022-08-25T20:52:09.693Z,69.88
2022-08-25T20:54:41.582Z,70.07
2022-08-25T20:57:24.426Z,70.03
2022-08-25T20:59:58.299Z,70.28
2022-08-25T21:02:30.549Z,70.57
2022-08-25T21:05:03.566Z,70.09
2022-08-25T21:07:36.054Z,70.10
2022-08-25T21:10:14.529Z,70.09
2022-08-25T21:12:46.344Z,69.67
2022-08-25T21:15:18.398Z,69.68
2022-08-25T21:17:54.817Z,69.37
2022-08-25T21:20:26.985Z,69.76
2022-08-25T21:22:58.560Z,69.10
2022-08-25T21:25:30.582Z,69.02
2022-08-25T21:28:02.360Z,69.46
2022-08-25T21:30:33.963Z,69.36
2022-08-25T21:33:06.906Z,69.13
2022-08-25T21:35:40.482Z,69.23
2022-08-25T21:38:17.797Z,69.10
2022-08-25T21:40:49.929Z,68.91
2022-08-25T21:43:24.110Z,68.77
2022-08-25T21:45:56.167Z,68.84
2022-08-25T21:48:27.854Z,68.68
2022-08-25T21:51:16.493Z,68.64
2022-08-25T21:53:49.662Z,68.40
2022-08-25T21:56:22.547Z,68.45
2022-08-25T21:58:57.901Z,68.42
2022-08-25T22:01:31.730Z,68.54
2022-08-25T22:04:04.126Z,69.06
2022-08-25T22:06:35.989Z,68.48
2022-08-25T22:09:09.257Z,68.49
2022-08-25T22:11:45.943Z,68.74
2022-08-25T22:14:18.354Z,69.52
2022-08-25T22:16:51.939Z,69.44
2022-08-25T22:19:24.668Z,69.96
2022-08-25T22:21:57.099Z,69.85
2022-08-25T22:24:29.007Z,69.95
2022-08-25T22:27:04.932Z,70.17
2022-08-25T22:29:47.884Z,70.31
2022-08-25T22:32:19.763Z,70.11
2022-08-25T22:34:51.465Z,69.85
2022-08-25T22:37:23.285Z,69.98
2022-08-25T22:39:54.944Z,70.26
2022-08-25T22:42:27.420Z,70.22
2022-08-25T22:44:59.099Z,70.92
2022-08-25T22:47:31.179Z,70.62
2022-08-25T22:50:04.834Z,70.44
2022-08-25T22:52:36.608Z,71.02
2022-08-25T22:55:11.256Z,71.09
2022-08-25T22:57:43.690Z,71.43
2022-08-25T23:00:16.980Z,71.54
2022-08-25T23:02:53.091Z,71.78
2022-08-25T23:05:24.868Z,71.60
2022-08-25T23:07:56.459Z,71.73
2022-08-25T23:10:28.145Z,72.44
2022-08-25T23:13:00.182Z,72.25
2022-08-25T23:15:31.783Z,72.47
2022-08-25T23:18:03.411Z,72.37
2022-08-25T23:20:53.627Z,72.29
2022-08-25T23:23:25.593Z,72.80
2022-08-25T23:25:57.247Z,72.95
2022-08-25T23:28:29.322Z,72.84
2022-08-25T23:31:01.415Z,72.66
2022-08-25T23:33:35.766Z,73.23
2022-08-25T23:36:10.646Z,73.14
2022-08-25T23:38:44.142Z,73.35
2022-08-25T23:41:19.079Z,73.35
2022-08-25T23:43:51.817Z,73.68
2022-08-25T23:46:25.063Z,74.15
2022-08-25T23:48:57.300Z,74.31
2022-08-25T23:51:34.534Z,74.54
2022-08-25T23:54:11.659Z,74.29
2022-08-25T23:56:51.368Z,74.16
2022-08-25T23:59:25.541Z,74.40
